Time;durP1;ratioP1;P1;durP2;ratioP2;P2;SDS_P1;SDS_P2;PMS_P1;PMS_P2;Temp;Humidity;BMP_temperature;BMP_pressure;BME280_temperature;BME280_humidity;BME280_pressure;Samples;Min_cycle;Max_cycle;Signal;HPM_P1;HPM_P2
2021/12/30 00:01:10;;;;;;;52.65;24.05;;;;;;;3.23;100.00;100338.41;5053494;28;20033;-66
2021/12/30 00:03:36;;;;;;;60.00;25.58;;;;;;;3.28;100.00;100333.69;5051073;28;20059;-66
2021/12/30 00:06:04;;;;;;;68.43;28.17;;;;;;;3.20;100.00;100340.38;5032989;28;20135;-66
2021/12/30 00:08:29;;;;;;;63.45;25.75;;;;;;;3.26;100.00;100354.13;5051217;28;20025;-66
2021/12/30 00:10:55;;;;;;;71.45;28.52;;;;;;;3.24;100.00;100352.50;5049806;28;20162;-66
2021/12/30 00:13:21;;;;;;;61.65;27.83;;;;;;;3.25;100.00;100354.19;5051203;28;20025;-66
2021/12/30 00:15:48;;;;;;;67.88;28.38;;;;;;;3.24;100.00;100348.06;5051015;28;20531;-66
2021/12/30 00:18:14;;;;;;;67.70;26.92;;;;;;;3.25;100.00;100347.13;5050995;28;20033;-66
2021/12/30 00:20:40;;;;;;;61.03;26.65;;;;;;;3.21;100.00;100337.66;5050922;28;20025;-66
2021/12/30 00:23:08;;;;;;;64.32;26.50;;;;;;;3.24;100.00;100348.06;5051082;28;20055;-66
2021/12/30 00:25:40;;;;;;;53.53;24.70;;;;;;;3.31;100.00;100341.47;5051055;28;20116;-66
2021/12/30 00:28:07;;;;;;;57.25;23.85;;;;;;;3.25;100.00;100344.47;5051635;28;20679;-66
2021/12/30 00:30:34;;;;;;;50.08;22.60;;;;;;;3.23;100.00;100346.38;5050824;28;20036;-66
2021/12/30 00:33:00;;;;;;;51.20;22.10;;;;;;;3.28;100.00;100356.69;5050782;28;20033;-66
2021/12/30 00:35:25;;;;;;;55.13;21.48;;;;;;;3.24;100.00;100358.66;5050807;28;20063;-66
2021/12/30 00:37:51;;;;;;;48.22;21.52;;;;;;;3.23;100.00;100361.41;5050306;28;20485;-65
2021/12/30 00:40:16;;;;;;;43.03;20.70;;;;;;;3.19;100.00;100365.19;5050415;28;20029;-66
2021/12/30 00:42:42;;;;;;;59.55;24.45;;;;;;;3.23;100.00;100378.16;5050644;28;20024;-66
2021/12/30 00:45:08;;;;;;;52.83;23.33;;;;;;;3.27;100.00;100387.66;5064817;28;20028;-66
2021/12/30 00:47:33;;;;;;;53.50;24.30;;;;;;;3.23;100.00;100398.50;5070410;28;20515;-66
2021/12/30 00:49:59;;;;;;;51.03;22.20;;;;;;;3.20;100.00;100399.53;5068758;28;20033;-66
2021/12/30 00:52:25;;;;;;;58.85;24.08;;;;;;;3.22;100.00;100407.41;5050456;28;20025;-66
2021/12/30 00:54:51;;;;;;;53.70;22.88;;;;;;;3.21;100.00;100410.97;5050172;28;20038;-66
2021/12/30 00:57:16;;;;;;;56.70;23.27;;;;;;;3.19;100.00;100411.06;5050413;28;20044;-65
2021/12/30 00:59:42;;;;;;;51.83;22.63;;;;;;;3.19;100.00;100413.72;5050299;28;20474;-66
2021/12/30 01:02:07;;;;;;;51.08;22.60;;;;;;;3.15;100.00;100412.19;5040189;28;20039;-66
2021/12/30 01:04:33;;;;;;;61.83;26.55;;;;;;;3.18;100.00;100419.97;5070029;28;20036;-66
2021/12/30 01:06:58;;;;;;;56.20;23.50;;;;;;;3.20;100.00;100418.09;5052336;28;20052;-66
2021/12/30 01:09:24;;;;;;;47.90;21.83;;;;;;;3.19;100.00;100424.31;5055542;28;20041;-66
2021/12/30 01:11:49;;;;;;;50.40;23.40;;;;;;;3.17;100.00;100428.00;5070147;28;20105;-66
2021/12/30 01:14:19;;;;;;;52.70;23.05;;;;;;;3.17;100.00;100426.22;5050686;28;20029;-66
2021/12/30 01:16:48;;;;;;;50.55;22.25;;;;;;;3.14;100.00;100420.22;5049778;28;20036;-66
2021/12/30 01:19:50;;;;;;;50.67;20.13;;;;;;;3.17;100.00;100431.50;5050268;28;20024;-66
2021/12/30 01:22:06;;;;;;;49.40;22.73;;;;;;;3.22;100.00;100436.56;5046654;28;20037;-66
2021/12/30 01:24:31;;;;;;;51.28;22.23;;;;;;;3.17;100.00;100438.59;5050183;28;20405;-66
2021/12/30 01:26:57;;;;;;;52.65;23.23;;;;;;;3.15;100.00;100437.81;5065300;28;20119;-65
2021/12/30 01:29:24;;;;;;;49.90;23.55;;;;;;;3.13;100.00;100437.91;5050367;28;20119;-65
2021/12/30 01:31:50;;;;;;;47.90;21.85;;;;;;;3.09;100.00;100423.13;5049749;28;20017;-66
2021/12/30 01:34:15;;;;;;;49.40;22.00;;;;;;;3.13;100.00;100443.19;5049895;28;20032;-66
2021/12/30 01:36:41;;;;;;;47.78;21.40;;;;;;;3.14;100.00;100439.63;5049660;28;20544;-66
2021/12/30 01:39:06;;;;;;;49.88;22.15;;;;;;;3.14;100.00;100450.22;5066124;28;20553;-66
2021/12/30 01:41:32;;;;;;;47.92;21.75;;;;;;;3.13;100.00;100455.59;5069562;28;20040;-66
2021/12/30 01:43:57;;;;;;;50.30;23.02;;;;;;;3.10;100.00;100446.03;5069257;28;20078;-66
2021/12/30 01:46:23;;;;;;;51.60;22.15;;;;;;;3.10;100.00;100451.34;5069318;28;20385;-66
2021/12/30 01:48:48;;;;;;;44.47;19.98;;;;;;;3.13;100.00;100455.59;5069099;28;20078;-66
2021/12/30 01:51:14;;;;;;;45.75;20.52;;;;;;;3.07;100.00;100445.34;5068871;28;20028;-66
2021/12/30 01:53:39;;;;;;;43.38;19.05;;;;;;;3.05;100.00;100444.56;5051024;28;20115;-66
2021/12/30 01:56:05;;;;;;;45.42;19.55;;;;;;;3.12;100.00;100448.56;5069169;28;20098;-66
2021/12/30 01:58:31;;;;;;;43.65;21.13;;;;;;;3.11;100.00;100446.88;5068940;28;20374;-66
2021/12/30 02:00:57;;;;;;;40.97;19.88;;;;;;;3.07;100.00;100438.25;5068773;28;20036;-67
2021/12/30 02:03:23;;;;;;;43.35;18.17;;;;;;;3.09;100.00;100441.66;5069314;28;20021;-66
2021/12/30 02:05:50;;;;;;;42.67;19.15;;;;;;;3.05;100.00;100445.44;5066977;28;20048;-67
2021/12/30 02:08:17;;;;;;;45.55;20.42;;;;;;;3.08;100.00;100452.34;5049613;28;20047;-66
2021/12/30 02:10:44;;;;;;;42.47;20.52;;;;;;;3.09;100.00;100467.31;5058458;28;20469;-66
2021/12/30 02:13:11;;;;;;;45.90;19.50;;;;;;;3.09;100.00;100460.22;5069045;28;20025;-66
2021/12/30 02:15:38;;;;;;;42.88;20.67;;;;;;;3.05;100.00;100452.50;5069218;28;20094;-66
2021/12/30 02:18:04;;;;;;;46.47;20.52;;;;;;;3.09;100.00;100460.22;5069496;28;20024;-66
2021/12/30 02:20:48;;;;;;;40.60;19.23;;;;;;;3.02;100.00;100460.63;5051697;28;20101;-66
2021/12/30 02:23:34;;;;;;;;;;;;;;;3.00;100.00;100467.81;5070046;28;20396;-66
2021/12/30 02:26:02;;;;;;;43.83;19.50;;;;;;;2.98;100.00;100473.19;5043706;28;19913;-66
2021/12/30 02:28:32;;;;;;;47.50;19.88;;;;;;;2.93;100.00;100461.16;5049670;28;20735;-66
2021/12/30 02:30:59;;;;;;;51.25;21.52;;;;;;;2.90;100.00;100462.16;5068890;28;20366;-66
2021/12/30 02:33:25;;;;;;;47.30;20.20;;;;;;;2.91;100.00;100468.31;5069224;28;20031;-66
2021/12/30 02:35:52;;;;;;;47.75;20.40;;;;;;;2.89;100.00;100472.81;5069061;28;20029;-66
2021/12/30 02:38:19;;;;;;;48.13;20.27;;;;;;;2.87;100.00;100477.38;5069219;28;20595;-66
2021/12/30 02:40:49;;;;;;;46.45;19.88;;;;;;;2.86;100.00;100462.38;5062419;28;20025;-66
2021/12/30 02:43:20;;;;;;;52.08;20.88;;;;;;;2.90;100.00;100466.63;5058615;28;20086;-66
2021/12/30 02:45:46;;;;;;;53.75;21.25;;;;;;;2.84;100.00;100453.69;5069030;28;20036;-66
2021/12/30 02:48:21;;;;;;;49.63;21.52;;;;;;;2.92;100.00;100470.00;5069334;28;20026;-66
2021/12/30 02:50:50;;;;;;;48.67;20.38;;;;;;;2.90;100.00;100463.97;5068837;28;20052;-66
2021/12/30 02:53:15;;;;;;;45.80;19.40;;;;;;;2.90;100.00;100469.25;5063309;28;20046;-66
2021/12/30 02:55:43;;;;;;;47.25;19.60;;;;;;;2.87;100.00;100469.41;5061808;28;20056;-66
2021/12/30 02:58:09;;;;;;;47.20;19.75;;;;;;;2.88;100.00;100466.69;5068988;28;20043;-66
2021/12/30 03:00:35;;;;;;;45.67;19.92;;;;;;;2.92;100.00;100476.19;5068968;28;20056;-66
2021/12/30 03:03:01;;;;;;;50.60;19.30;;;;;;;2.91;100.00;100473.59;5050129;28;20039;-67
2021/12/30 03:05:27;;;;;;;45.53;19.95;;;;;;;2.90;100.00;100474.56;5048892;28;20045;-66
2021/12/30 03:07:53;;;;;;;54.08;20.90;;;;;;;2.95;100.00;100472.50;5067972;28;20030;-66
2021/12/30 03:10:22;;;;;;;53.42;21.67;;;;;;;2.92;100.00;100465.59;5050652;28;20028;-66
2021/12/30 03:12:56;;;;;;;54.72;20.33;;;;;;;2.95;100.00;100473.38;5068534;28;20028;-66
2021/12/30 03:15:23;;;;;;;52.92;21.35;;;;;;;2.97;100.00;100482.06;5068527;28;20058;-66
2021/12/30 03:17:49;;;;;;;50.00;19.52;;;;;;;2.97;100.00;100481.22;5068201;28;20032;-66
2021/12/30 03:20:14;;;;;;;48.88;19.35;;;;;;;2.94;100.00;100468.16;5068003;28;20082;-66
2021/12/30 03:22:42;;;;;;;49.55;18.48;;;;;;;2.99;100.00;100479.34;5068573;28;20028;-66
2021/12/30 03:25:09;;;;;;;40.60;17.27;;;;;;;2.98;100.00;100467.91;5068685;28;20028;-66
2021/12/30 03:27:36;;;;;;;38.67;16.50;;;;;;;3.03;100.00;100476.44;5068721;28;20029;-66
2021/12/30 03:30:06;;;;;;;44.72;17.85;;;;;;;3.01;100.00;100466.88;5061319;28;20482;-66
2021/12/30 03:32:31;;;;;;;42.88;18.00;;;;;;;2.95;100.00;100472.50;5048938;28;20454;-66
2021/12/30 03:34:57;;;;;;;38.28;16.45;;;;;;;2.95;100.00;100481.31;5065287;28;20031;-66
2021/12/30 03:37:22;;;;;;;48.50;19.05;;;;;;;2.99;100.00;100496.09;5068684;28;20041;-67
2021/12/30 03:39:48;;;;;;;45.67;18.85;;;;;;;2.97;100.00;100492.66;5068542;28;20059;-66
2021/12/30 03:42:15;;;;;;;37.83;15.98;;;;;;;3.00;100.00;100491.66;5068627;28;20025;-66
2021/12/30 03:44:41;;;;;;;42.63;18.02;;;;;;;2.99;100.00;100495.22;5050350;28;20039;-66
2021/12/30 03:47:12;;;;;;;33.42;15.60;;;;;;;2.96;100.00;100490.97;5062958;28;20120;-66
2021/12/30 03:49:37;;;;;;;33.22;14.57;;;;;;;2.94;100.00;100492.00;5051465;28;20039;-66
2021/12/30 03:52:03;;;;;;;33.80;14.93;;;;;;;2.95;100.00;100493.69;5068394;28;20028;-66
2021/12/30 03:54:28;;;;;;;36.10;15.50;;;;;;;2.88;100.00;100487.00;5068474;28;20085;-66
2021/12/30 03:56:54;;;;;;;34.58;15.38;;;;;;;2.93;100.00;100492.94;5068145;28;20067;-66
2021/12/30 03:59:19;;;;;;;38.97;15.77;;;;;;;2.89;100.00;100501.97;5068713;28;20024;-66
2021/12/30 04:01:45;;;;;;;46.13;16.38;;;;;;;2.86;100.00;100496.81;5050647;28;20032;-66
2021/12/30 04:04:10;;;;;;;37.25;15.82;;;;;;;2.84;100.00;100499.56;5068508;28;20090;-66
2021/12/30 04:06:36;;;;;;;44.38;17.33;;;;;;;2.90;100.00;100520.41;5059724;28;20051;-66
2021/12/30 04:09:02;;;;;;;35.70;15.80;;;;;;;2.90;100.00;100533.66;5048628;28;20120;-66
2021/12/30 04:11:34;;;;;;;36.90;16.73;;;;;;;2.86;100.00;100531.25;5064405;28;20037;-66
2021/12/30 04:14:01;;;;;;;42.92;16.10;;;;;;;2.85;100.00;100532.19;5030330;28;20032;-66
2021/12/30 04:16:27;;;;;;;47.92;16.88;;;;;;;2.86;100.00;100533.91;5051957;28;20079;-67
2021/12/30 04:18:52;;;;;;;46.20;18.23;;;;;;;2.89;100.00;100539.03;5052006;28;20033;-66
2021/12/30 04:21:19;;;;;;;46.30;18.02;;;;;;;2.90;100.00;100543.41;5071704;28;20086;-66
2021/12/30 04:23:45;;;;;;;47.85;18.40;;;;;;;2.92;100.00;100557.41;5071278;28;20023;-66
2021/12/30 04:26:11;;;;;;;48.95;18.90;;;;;;;2.97;100.00;100584.53;5071752;28;20090;-66
2021/12/30 04:28:38;;;;;;;48.90;19.02;;;;;;;2.91;100.00;100580.44;5071546;28;20078;-67
2021/12/30 04:31:04;;;;;;;52.58;19.13;;;;;;;2.96;100.00;100588.13;5053662;28;20082;-66
2021/12/30 04:33:29;;;;;;;43.50;17.40;;;;;;;2.93;100.00;100583.81;5055858;28;20040;-66
2021/12/30 04:35:56;;;;;;;49.33;18.50;;;;;;;2.90;100.00;100572.56;5051462;28;20021;-66
2021/12/30 04:38:26;;;;;;;49.97;19.13;;;;;;;2.95;100.00;100579.31;5067910;28;20093;-66
2021/12/30 04:40:52;;;;;;;43.30;18.00;;;;;;;2.95;100.00;100568.72;5071040;28;20051;-66
2021/12/30 04:43:18;;;;;;;49.40;18.30;;;;;;;3.02;100.00;100563.94;5063485;28;20655;-66
2021/12/30 04:45:44;;;;;;;53.42;18.50;;;;;;;2.99;100.00;100564.09;5058839;28;20033;-66
2021/12/30 04:48:10;;;;;;;49.30;19.73;;;;;;;2.95;100.00;100563.44;5051124;28;20028;-66
2021/12/30 04:50:36;;;;;;;42.08;17.38;;;;;;;3.02;100.00;100569.25;5051100;28;20481;-66
2021/12/30 04:53:02;;;;;;;42.85;18.38;;;;;;;3.03;100.00;100586.88;5058081;28;20024;-66
2021/12/30 04:55:28;;;;;;;38.03;16.27;;;;;;;3.00;100.00;100597.63;5070944;28;20041;-66
2021/12/30 04:57:53;;;;;;;40.17;17.25;;;;;;;2.98;100.00;100605.66;5070749;28;20027;-66
2021/12/30 05:00:19;;;;;;;40.75;15.77;;;;;;;2.95;100.00;100605.81;5061676;28;20497;-66
2021/12/30 05:05:44;;;;;;;;;;;;;;;2.93;100.00;100612.97;5056787;28;20109;-66
2021/12/30 05:08:10;;;;;;;31.92;13.23;;;;;;;2.94;100.00;100612.06;5051881;28;19917;-66
2021/12/30 05:10:36;;;;;;;35.13;13.93;;;;;;;2.90;100.00;100615.78;5049084;28;20523;-66
2021/12/30 05:13:04;;;;;;;35.17;12.77;;;;;;;2.92;100.00;100631.59;5050819;28;20026;-67
2021/12/30 05:15:29;;;;;;;33.38;14.23;;;;;;;2.94;100.00;100640.31;5050715;28;20040;-66
2021/12/30 05:17:55;;;;;;;31.58;13.55;;;;;;;2.93;100.00;100638.63;5050608;28;20033;-66
2021/12/30 05:20:21;;;;;;;31.90;14.20;;;;;;;2.84;100.00;100641.72;5050910;28;20028;-66
2021/12/30 05:22:46;;;;;;;29.70;12.10;;;;;;;2.90;100.00;100657.31;5050180;28;20039;-66
2021/12/30 05:25:13;;;;;;;29.80;13.60;;;;;;;2.87;100.00;100660.94;5064014;28;20379;-66
2021/12/30 05:27:39;;;;;;;35.13;14.25;;;;;;;2.86;100.00;100666.31;5069535;28;20040;-67
2021/12/30 05:30:06;;;;;;;32.95;14.25;;;;;;;2.88;100.00;100662.69;5070142;28;20089;-66
2021/12/30 05:32:31;;;;;;;35.10;14.07;;;;;;;2.85;100.00;100654.03;5070118;28;20036;-66
2021/12/30 05:34:57;;;;;;;30.73;14.13;;;;;;;2.81;100.00;100650.69;5046640;28;20024;-66
2021/12/30 05:37:22;;;;;;;33.15;13.23;;;;;;;2.79;100.00;100656.97;5058177;28;20091;-66
2021/12/30 05:39:48;;;;;;;35.88;13.65;;;;;;;2.75;100.00;100652.78;5061250;28;20252;-66
2021/12/30 05:42:13;;;;;;;33.92;15.27;;;;;;;2.82;100.00;100664.78;5070153;28;20541;-67
2021/12/30 05:44:40;;;;;;;32.50;14.60;;;;;;;2.79;100.00;100654.34;5070055;28;20035;-66
2021/12/30 05:47:06;;;;;;;32.17;14.32;;;;;;;2.76;100.00;100646.53;5070003;28;20032;-66
2021/12/30 05:49:32;;;;;;;29.85;13.02;;;;;;;2.80;100.00;100640.19;5070160;28;20078;-66
2021/12/30 05:51:57;;;;;;;27.13;12.80;;;;;;;2.78;100.00;100650.84;5069516;28;20032;-66
2021/12/30 05:54:22;;;;;;;27.63;12.45;;;;;;;2.78;100.00;100653.50;5053985;28;20116;-66
2021/12/30 05:56:48;;;;;;;27.95;13.50;;;;;;;2.76;100.00;100634.16;5062686;28;20032;-67
2021/12/30 05:59:13;;;;;;;32.92;13.82;;;;;;;2.72;100.00;100640.56;5049816;28;20017;-66
2021/12/30 06:01:40;;;;;;;31.83;13.68;;;;;;;2.77;100.00;100648.28;5049735;28;20051;-66
2021/12/30 06:04:05;;;;;;;32.85;13.77;;;;;;;2.76;100.00;100658.00;5049856;28;20385;-66
2021/12/30 06:06:31;;;;;;;32.33;14.98;;;;;;;2.69;100.00;100661.03;5055748;28;20049;-66
2021/12/30 06:08:57;;;;;;;37.30;15.35;;;;;;;2.78;100.00;100676.47;5031571;28;20021;-67
2021/12/30 06:11:22;;;;;;;34.42;15.00;;;;;;;2.72;100.00;100682.06;5049927;28;20029;-67
2021/12/30 06:13:47;;;;;;;30.45;14.18;;;;;;;2.74;100.00;100699.59;5049608;28;20028;-66
2021/12/30 06:16:13;;;;;;;30.38;13.00;;;;;;;2.73;100.00;100703.16;5055183;28;20094;-66
2021/12/30 06:18:38;;;;;;;32.85;13.65;;;;;;;2.71;100.00;100710.31;5069416;28;20032;-66
2021/12/30 06:21:04;;;;;;;30.85;13.23;;;;;;;2.73;100.00;100731.44;5056425;28;20020;-66
2021/12/30 06:23:29;;;;;;;29.60;13.48;;;;;;;2.84;100.00;100782.94;5048311;28;20048;-67
2021/12/30 06:25:55;;;;;;;30.75;13.68;;;;;;;2.78;100.00;100783.25;5052722;28;20681;-66
2021/12/30 06:28:20;;;;;;;27.00;12.18;;;;;;;2.76;100.00;100794.84;5047684;28;20178;-66
2021/12/30 06:30:46;;;;;;;33.05;14.05;;;;;;;2.70;100.00;100773.97;5069324;28;20049;-66
2021/12/30 06:33:11;;;;;;;28.33;13.15;;;;;;;2.58;100.00;100771.91;5051332;28;20039;-66
2021/12/30 06:35:37;;;;;;;31.23;12.90;;;;;;;2.63;100.00;100783.13;5068833;28;20139;-66
2021/12/30 06:38:03;;;;;;;25.98;11.50;;;;;;;2.58;100.00;100779.84;5056695;28;20029;-66
2021/12/30 06:40:29;;;;;;;30.15;13.07;;;;;;;2.53;100.00;100790.66;5049037;28;20463;-66
2021/12/30 06:42:55;;;;;;;32.55;13.57;;;;;;;2.50;100.00;100803.16;5049200;28;20037;-66
2021/12/30 06:45:20;;;;;;;27.60;12.77;;;;;;;2.53;100.00;100819.78;5058903;28;20035;-66
2021/12/30 06:47:46;;;;;;;31.35;12.85;;;;;;;2.54;100.00;100842.66;5063709;28;20032;-66
2021/12/30 06:50:16;;;;;;;30.13;14.00;;;;;;;2.51;100.00;100841.97;5063641;28;20541;-66
2021/12/30 06:52:46;;;;;;;31.80;14.32;;;;;;;2.52;100.00;100846.31;5048450;28;20032;-66
2021/12/30 06:55:12;;;;;;;35.80;15.07;;;;;;;2.52;100.00;100846.31;5029741;28;20893;-66
2021/12/30 06:57:39;;;;;;;36.75;16.05;;;;;;;2.50;100.00;100848.19;5047274;28;20036;-66
2021/12/30 07:00:08;;;;;;;36.38;16.38;;;;;;;2.56;100.00;100847.91;5048305;28;20052;-66
2021/12/30 07:02:34;;;;;;;52.33;22.20;;;;;;;2.49;100.00;100833.22;5049016;28;20051;-66
2021/12/30 07:05:00;;;;;;;49.85;22.10;;;;;;;2.54;100.00;100839.19;5067723;28;20044;-66
2021/12/30 07:07:25;;;;;;;49.30;17.75;;;;;;;2.59;100.00;100845.09;5039547;28;20020;-67
2021/12/30 07:09:51;;;;;;;39.10;17.40;;;;;;;2.57;100.00;100839.03;5068826;28;20039;-67
2021/12/30 07:12:17;;;;;;;39.83;17.02;;;;;;;2.58;100.00;100838.94;5069311;28;20028;-67
2021/12/30 07:14:43;;;;;;;42.67;17.55;;;;;;;2.55;100.00;100835.59;5068958;28;20045;-66
2021/12/30 07:17:08;;;;;;;42.45;18.20;;;;;;;2.62;100.00;100837.03;5042807;28;20028;-67
2021/12/30 07:19:34;;;;;;;46.75;17.77;;;;;;;2.63;100.00;100833.44;5050931;28;20082;-66
2021/12/30 07:21:59;;;;;;;41.15;16.35;;;;;;;2.63;100.00;100829.00;5051478;28;20082;-66
2021/12/30 07:24:25;;;;;;;40.13;16.30;;;;;;;2.74;100.00;100845.22;5048760;28;20056;-66
2021/12/30 07:26:52;;;;;;;40.72;17.15;;;;;;;2.75;100.00;100864.63;5061852;28;20123;-66
2021/12/30 07:29:18;;;;;;;38.30;16.08;;;;;;;2.77;100.00;100881.31;5068817;28;20043;-66
2021/12/30 07:31:43;;;;;;;36.88;14.80;;;;;;;2.78;100.00;100890.97;5068587;28;20040;-67
2021/12/30 07:34:09;;;;;;;42.45;16.45;;;;;;;2.73;100.00;100875.31;5065802;28;20028;-66
2021/12/30 07:36:35;;;;;;;42.80;15.75;;;;;;;2.75;100.00;100888.47;5050867;28;20024;-66
2021/12/30 07:39:00;;;;;;;38.17;16.65;;;;;;;2.72;100.00;100870.94;5068263;28;20032;-66
2021/12/30 07:41:26;;;;;;;40.22;15.27;;;;;;;2.76;100.00;100880.47;5068758;28;20024;-66
2021/12/30 07:43:51;;;;;;;38.90;15.57;;;;;;;2.80;100.00;100883.84;5068508;28;20028;-66
2021/12/30 07:46:17;;;;;;;36.63;14.60;;;;;;;2.77;100.00;100874.22;5068754;28;20524;-66
2021/12/30 07:48:43;;;;;;;41.58;16.63;;;;;;;2.83;100.00;100881.03;5068429;28;20087;-66
2021/12/30 07:51:08;;;;;;;39.22;16.55;;;;;;;2.81;100.00;100873.16;5071574;28;20029;-66
2021/12/30 07:53:34;;;;;;;42.47;16.52;;;;;;;2.82;100.00;100877.53;5063130;28;20407;-66
2021/12/30 07:56:02;;;;;;;37.78;15.50;;;;;;;2.83;100.00;100886.34;5058932;28;20032;-66
2021/12/30 07:58:28;;;;;;;34.75;14.00;;;;;;;2.85;100.00;100892.41;5064743;28;20354;-66
2021/12/30 08:00:53;;;;;;;37.75;15.60;;;;;;;2.87;100.00;100893.19;5069660;28;20495;-67
2021/12/30 08:03:19;;;;;;;43.05;16.20;;;;;;;2.91;100.00;100885.03;5052564;28;20036;-66
2021/12/30 08:05:45;;;;;;;40.15;14.85;;;;;;;2.91;100.00;100895.63;5052347;28;20036;-67
2021/12/30 08:08:10;;;;;;;39.47;15.40;;;;;;;2.96;100.00;100911.31;5067850;28;20029;-67
2021/12/30 08:10:36;;;;;;;42.30;17.30;;;;;;;3.01;100.00;100914.59;5072184;28;20380;-67
2021/12/30 08:13:02;;;;;;;38.55;16.38;;;;;;;3.02;100.00;100903.06;5054960;28;20050;-67
2021/12/30 08:15:28;;;;;;;39.70;16.35;;;;;;;3.06;100.00;100907.28;5052292;28;20110;-67
2021/12/30 08:17:54;;;;;;;34.72;15.00;;;;;;;3.08;100.00;100894.81;5051880;28;20063;-67
2021/12/30 08:20:22;;;;;;;39.55;15.60;;;;;;;3.09;100.00;100899.22;5054645;28;20025;-67
2021/12/30 08:22:48;;;;;;;36.53;15.52;;;;;;;3.15;100.00;100917.44;5051971;28;20037;-67
2021/12/30 08:25:14;;;;;;;46.45;17.30;;;;;;;3.12;100.00;100910.50;5051892;28;20059;-64
2021/12/30 08:27:41;;;;;;;41.10;17.00;;;;;;;3.18;100.00;100928.75;5052210;28;20461;-65
2021/12/30 08:30:10;;;;;;;40.65;15.68;;;;;;;3.20;100.00;100929.56;5051974;28;20965;-66
2021/12/30 08:32:35;;;;;;;41.45;16.45;;;;;;;3.20;100.00;100924.25;5051933;28;20067;-67
2021/12/30 08:35:01;;;;;;;37.38;16.23;;;;;;;3.15;100.00;100918.31;5068479;28;20059;-67
2021/12/30 08:37:27;;;;;;;37.90;16.90;;;;;;;3.18;100.00;100927.88;5053647;28;20029;-67
2021/12/30 08:39:52;;;;;;;41.00;16.85;;;;;;;3.16;100.00;100929.78;5071599;28;20036;-67
2021/12/30 08:42:23;;;;;;;43.70;17.50;;;;;;;3.20;100.00;100936.63;5053652;28;20423;-66
2021/12/30 08:44:49;;;;;;;47.90;18.42;;;;;;;3.17;100.00;100923.53;5059399;28;20098;-66
2021/12/30 08:47:15;;;;;;;48.22;20.10;;;;;;;3.16;100.00;100905.91;5051673;28;20558;-66
2021/12/30 08:49:44;;;;;;;49.65;20.98;;;;;;;3.26;100.00;100907.19;5033722;28;20021;-66
2021/12/30 08:52:11;;;;;;;49.22;20.40;;;;;;;3.28;100.00;100910.59;5051487;28;20057;-65
2021/12/30 08:54:36;;;;;;;49.35;20.13;;;;;;;3.31;100.00;100913.97;5065725;28;20042;-67
2021/12/30 08:57:04;;;;;;;50.38;20.27;;;;;;;3.33;100.00;100914.78;5071406;28;20024;-67
2021/12/30 08:59:29;;;;;;;45.17;19.77;;;;;;;3.37;100.00;100912.81;5068968;28;20040;-67
2021/12/30 09:01:55;;;;;;;43.63;18.88;;;;;;;3.44;100.00;100927.47;5050823;28;20028;-67
2021/12/30 09:04:21;;;;;;;52.67;21.63;;;;;;;3.44;100.00;100922.19;5070502;28;20029;-67
2021/12/30 09:06:46;;;;;;;54.20;22.13;;;;;;;3.46;100.00;100925.63;5060995;28;20021;-67
2021/12/30 09:09:12;;;;;;;52.85;22.50;;;;;;;3.50;100.00;100932.50;5050083;28;20481;-67
2021/12/30 09:11:37;;;;;;;55.17;21.60;;;;;;;3.49;100.00;100928.13;5071116;28;20030;-67
2021/12/30 09:14:03;;;;;;;54.85;21.13;;;;;;;3.47;100.00;100922.91;5070832;28;20115;-64
2021/12/30 09:16:28;;;;;;;48.53;20.17;;;;;;;3.49;100.00;100921.03;5061463;28;20045;-64
2021/12/30 09:18:53;;;;;;;51.65;20.98;;;;;;;3.46;100.00;100907.06;5050872;28;20017;-64
2021/12/30 09:21:19;;;;;;;40.85;18.55;;;;;;;3.51;100.00;100919.16;5050929;28;20108;-64
2021/12/30 09:23:44;;;;;;;46.92;19.27;;;;;;;3.55;100.00;100933.97;5050909;28;20469;-67
2021/12/30 09:26:10;;;;;;;46.33;19.00;;;;;;;3.54;100.00;100928.75;5032698;28;20020;-67
2021/12/30 09:28:36;;;;;;;46.28;18.75;;;;;;;3.56;100.00;100925.09;5050659;28;20028;-67
2021/12/30 09:31:01;;;;;;;42.33;18.10;;;;;;;3.54;100.00;100921.66;5050920;28;20029;-67
2021/12/30 09:33:27;;;;;;;44.40;18.77;;;;;;;3.58;100.00;100940.94;5068003;28;20058;-67
2021/12/30 09:35:52;;;;;;;42.70;18.27;;;;;;;3.53;100.00;100919.09;5070597;28;20036;-66
2021/12/30 09:38:19;;;;;;;45.70;18.95;;;;;;;3.56;100.00;100925.09;5070517;28;20492;-66
2021/12/30 09:40:45;;;;;;;43.47;18.98;;;;;;;3.57;100.00;100924.16;5070612;28;20036;-66
2021/12/30 09:43:11;;;;;;;44.72;17.90;;;;;;;3.58;100.00;100923.22;5070136;28;20499;-66
2021/12/30 09:45:42;;;;;;;47.70;19.35;;;;;;;3.60;100.00;100905.44;5070376;28;20123;-66
2021/12/30 09:48:11;;;;;;;47.60;18.40;;;;;;;3.62;100.00;100906.25;5070342;28;20016;-66
2021/12/30 09:50:50;;;;;;;44.20;18.02;;;;;;;3.64;100.00;100900.88;5069870;28;20025;-66
2021/12/30 09:53:24;;;;;;;42.05;17.23;;;;;;;3.65;100.00;100886.66;5050108;28;20052;-66
2021/12/30 09:55:51;;;;;;;41.05;18.45;;;;;;;3.66;100.00;100897.19;5052928;28;20100;-66
2021/12/30 09:58:17;;;;;;;43.30;18.15;;;;;;;3.69;100.00;100906.78;5050533;28;20033;-66
2021/12/30 10:00:43;;;;;;;44.38;18.17;;;;;;;3.70;100.00;100906.69;5064041;28;20033;-67
2021/12/30 10:03:09;;;;;;;39.67;17.38;;;;;;;3.71;100.00;100911.06;5069778;28;20040;-66
2021/12/30 10:05:38;;;;;;;41.30;17.90;;;;;;;3.74;100.00;100931.28;5069685;28;20031;-66
2021/12/30 10:08:25;;;;;;;50.08;20.10;;;;;;;3.76;100.00;100940.88;5049864;28;20021;-66
2021/12/30 10:10:57;;;;;;;44.13;17.70;;;;;;;3.75;100.00;100933.00;5069062;28;20044;-66
2021/12/30 10:13:29;;;;;;;37.83;17.15;;;;;;;3.76;100.00;100929.41;5056315;28;20477;-66
2021/12/30 10:16:19;;;;;;;40.63;16.42;;;;;;;3.84;100.00;100945.81;5069589;28;20111;-66
2021/12/30 10:18:54;;;;;;;39.10;15.13;;;;;;;3.82;100.00;100927.31;5069046;28;20033;-66
2021/12/30 10:21:31;;;;;;;36.83;16.15;;;;;;;3.90;100.00;100922.47;5069763;28;20032;-66
2021/12/30 10:23:59;;;;;;;35.03;14.88;;;;;;;3.94;100.00;100923.19;5069589;28;20025;-66
2021/12/30 10:26:26;;;;;;;32.20;14.73;;;;;;;3.99;100.00;100924.66;5069655;28;20039;-66
2021/12/30 10:28:55;;;;;;;32.55;16.00;;;;;;;4.03;100.00;100912.94;5061600;28;20032;-66
2021/12/30 10:31:24;;;;;;;35.38;14.57;;;;;;;4.06;100.00;100922.53;5046364;28;20035;-66
2021/12/30 10:34:05;;;;;;;33.80;15.75;;;;;;;4.09;100.00;100938.28;5051438;28;20052;-66
2021/12/30 10:36:41;;;;;;;36.65;15.65;;;;;;;4.06;100.00;100930.47;5069518;28;20032;-66
2021/12/30 10:39:30;;;;;;;40.35;16.42;;;;;;;4.08;100.00;100932.16;5068903;28;20476;-66
2021/12/30 10:41:58;;;;;;;38.13;16.63;;;;;;;4.06;100.00;100941.97;5056060;28;20033;-66
2021/12/30 10:44:24;;;;;;;39.53;16.73;;;;;;;4.04;100.00;100937.69;5049342;28;20033;-66
2021/12/30 10:46:52;;;;;;;43.70;17.48;;;;;;;4.03;100.00;100930.69;5049572;28;20033;-66
2021/12/30 10:49:25;;;;;;;50.72;19.85;;;;;;;4.02;100.00;100931.59;5063672;28;20028;-66
2021/12/30 10:51:52;;;;;;;45.42;17.73;;;;;;;4.02;100.00;100937.75;5069062;28;20031;-66
2021/12/30 10:54:39;;;;;;;44.45;18.88;;;;;;;4.03;100.00;100928.03;5068811;28;20032;-66
2021/12/30 10:57:09;;;;;;;40.20;17.55;;;;;;;4.05;100.00;100923.47;5052914;28;20025;-66
2021/12/30 10:59:43;;;;;;;46.17;18.65;;;;;;;4.06;100.00;100925.19;5049171;28;20033;-66
2021/12/30 11:02:12;;;;;;;43.05;18.58;;;;;;;4.04;100.00;100925.28;5048995;28;20028;-66
2021/12/30 11:04:46;;;;;;;49.47;20.48;;;;;;;4.09;100.00;100932.97;5049049;28;20135;-66
2021/12/30 11:07:13;;;;;;;;;;;;;;;4.04;100.00;100925.28;5054426;28;20054;-66
2021/12/30 11:09:47;;;;;;;101.35;46.28;;;;;;;4.09;100.00;100932.97;5048823;28;19928;-66
2021/12/30 11:12:13;;;;;;;61.70;30.05;;;;;;;4.08;100.00;100934.81;5030940;28;20488;-66